Time;durP1;ratioP1;P1;durP2;ratioP2;P2;SDS_P1;SDS_P2;PMS_P1;PMS_P2;Temp;Humidity;BMP_temperature;BMP_pressure;BME280_temperature;BME280_humidity;BME280_pressure;Samples;Min_cycle;Max_cycle;Signal;HPM_P1;HPM_P2
2023/12/29 00:00:28;;;;;;;35.00;31.50;;;;;;;5.48;91.92;97821.51;106244;1272;23952;-76
2023/12/29 00:03:16;;;;;;;39.60;35.60;;;;;;;5.49;91.59;97825.73;106363;1277;23926;-76
2023/12/29 00:05:44;;;;;;;34.60;29.50;;;;;;;5.48;92.11;97827.13;106311;1280;22704;-75
2023/12/29 00:08:12;;;;;;;34.10;30.40;;;;;;;5.50;92.70;97828.04;106274;1270;22530;-76
2023/12/29 00:10:40;;;;;;;26.70;24.00;;;;;;;5.53;92.83;97825.10;106284;1270;22557;-76
2023/12/29 00:13:08;;;;;;;25.00;22.30;;;;;;;5.54;92.95;97822.84;106398;1283;22656;-75
2023/12/29 00:15:36;;;;;;;25.90;23.30;;;;;;;5.58;93.84;97821.23;106342;1277;22495;-75
2023/12/29 00:18:04;;;;;;;26.70;24.00;;;;;;;5.61;94.25;97822.54;106315;1274;23279;-74
2023/12/29 00:20:32;;;;;;;27.30;24.70;;;;;;;5.63;94.47;97820.14;106352;1283;26001;-74
2023/12/29 00:23:08;;;;;;;24.70;22.30;;;;;;;5.64;95.44;97823.00;106235;1283;24361;-75
2023/12/29 00:25:37;;;;;;;23.00;20.70;;;;;;;5.64;94.76;97818.25;106257;1280;22777;-74
2023/12/29 00:28:06;;;;;;;23.70;21.20;;;;;;;5.68;94.74;97820.70;106260;1269;24549;-74
2023/12/29 00:30:38;;;;;;;24.20;21.80;;;;;;;5.74;95.22;97818.56;106225;1283;25552;-74
2023/12/29 00:33:25;;;;;;;23.20;21.10;;;;;;;5.78;95.77;97817.86;106262;1283;22913;-73
2023/12/29 00:35:53;;;;;;;22.20;20.10;;;;;;;5.78;95.81;97820.05;106251;1283;22773;-75
2023/12/29 00:38:21;;;;;;;19.60;17.70;;;;;;;5.80;96.30;97806.30;106207;1277;26669;-74
2023/12/29 00:40:49;;;;;;;19.50;17.60;;;;;;;5.85;97.11;97805.81;106290;1270;22543;-74
2023/12/29 00:43:17;;;;;;;20.20;18.10;;;;;;;5.91;97.35;97808.76;106272;1270;22554;-75
2023/12/29 00:45:45;;;;;;;20.20;18.10;;;;;;;5.95;97.17;97799.27;106309;1271;25411;-74
2023/12/29 00:48:15;;;;;;;21.30;19.30;;;;;;;5.95;96.55;97797.52;106297;1273;24221;-74
2023/12/29 00:50:43;;;;;;;22.10;19.80;;;;;;;5.95;96.27;97794.48;106240;1273;24101;-74
2023/12/29 00:53:11;;;;;;;20.90;18.90;;;;;;;5.95;96.12;97788.40;106241;1272;22559;-75
2023/12/29 00:55:39;;;;;;;20.20;18.20;;;;;;;5.96;97.10;97785.92;106218;1268;22555;-76
2023/12/29 00:58:07;;;;;;;22.60;20.40;;;;;;;5.96;96.57;97789.99;106136;1276;24496;-75
2023/12/29 01:00:34;;;;;;;20.80;18.90;;;;;;;5.95;96.04;97798.02;106227;1283;25267;-75
2023/12/29 01:03:03;;;;;;;19.60;17.60;;;;;;;5.94;96.10;97790.42;106237;1270;24062;-75
2023/12/29 01:05:31;;;;;;;19.10;17.20;;;;;;;5.99;96.78;97791.38;106266;1268;25503;-74
2023/12/29 01:07:59;;;;;;;18.90;17.20;;;;;;;6.00;96.60;97794.21;106238;1283;25541;-76
2023/12/29 01:10:27;;;;;;;22.00;20.00;;;;;;;6.03;96.97;97798.86;106153;1270;22546;-75
2023/12/29 01:12:55;;;;;;;22.40;20.30;;;;;;;6.02;97.19;97792.93;106209;1283;22550;-76
2023/12/29 01:15:23;;;;;;;19.80;17.80;;;;;;;6.01;96.63;97793.19;106262;1268;24079;-77
2023/12/29 01:17:52;;;;;;;20.60;18.50;;;;;;;6.03;97.07;97790.09;106238;1269;22673;-76
2023/12/29 01:20:20;;;;;;;21.30;19.20;;;;;;;6.06;97.04;97784.23;106226;1271;25394;-76
2023/12/29 01:22:50;;;;;;;21.00;18.90;;;;;;;6.08;97.36;97775.04;106278;1283;22612;-75
2023/12/29 01:25:18;;;;;;;21.70;19.50;;;;;;;6.07;96.89;97773.82;106307;1270;25331;-76
2023/12/29 01:27:46;;;;;;;20.30;18.30;;;;;;;6.05;96.68;97772.91;106295;1273;22545;-76
2023/12/29 01:30:14;;;;;;;19.40;17.50;;;;;;;6.04;97.10;97771.47;106208;1272;22561;-76
2023/12/29 01:32:42;;;;;;;19.90;17.90;;;;;;;6.02;97.21;97771.36;106186;1270;23322;-77
2023/12/29 01:35:10;;;;;;;20.40;18.50;;;;;;;6.00;97.29;97770.26;106266;1271;22541;-77
2023/12/29 01:37:38;;;;;;;20.30;18.30;;;;;;;6.00;97.42;97770.94;106175;1269;22555;-76
2023/12/29 01:40:06;;;;;;;20.10;18.10;;;;;;;5.99;97.26;97763.89;106354;1276;24275;-75
2023/12/29 01:42:34;;;;;;;20.30;17.90;;;;;;;5.97;97.52;97757.95;106215;1283;22540;-76
2023/12/29 01:45:03;;;;;;;21.40;19.40;;;;;;;5.98;97.58;97755.27;106449;1281;25522;-75
2023/12/29 01:47:31;;;;;;;21.00;18.90;;;;;;;5.99;97.67;97752.33;106590;1284;24269;-75
2023/12/29 01:49:59;;;;;;;21.50;19.30;;;;;;;5.98;97.80;97750.58;106293;1282;22536;-74
2023/12/29 01:52:28;;;;;;;21.70;19.50;;;;;;;5.95;97.60;97751.92;106381;1282;22649;-75
2023/12/29 01:54:56;;;;;;;21.30;19.10;;;;;;;5.93;97.60;97743.34;106382;1283;23058;-74
2023/12/29 01:57:24;;;;;;;20.00;18.10;;;;;;;5.92;97.75;97735.05;106263;1277;22584;-76
2023/12/29 01:59:52;;;;;;;19.80;17.70;;;;;;;5.92;97.89;97733.35;106257;1283;25312;-76
2023/12/29 02:02:20;;;;;;;20.50;18.50;;;;;;;5.89;97.83;97734.73;106397;1283;23911;-75
2023/12/29 02:04:48;;;;;;;18.30;16.50;;;;;;;5.86;97.78;97737.41;106269;1276;24486;-75
2023/12/29 02:07:18;;;;;;;19.40;17.60;;;;;;;5.84;97.80;97733.78;106297;1277;22648;-75
2023/12/29 02:09:46;;;;;;;18.30;16.50;;;;;;;5.83;97.79;97728.77;106409;1264;24221;-74
2023/12/29 02:12:14;;;;;;;20.70;18.70;;;;;;;5.83;97.79;97726.62;106196;1283;22554;-75
2023/12/29 02:14:42;;;;;;;20.50;18.50;;;;;;;5.79;97.77;97721.34;106214;1283;22555;-75
2023/12/29 02:17:25;;;;;;;20.40;18.40;;;;;;;5.75;97.94;97723.16;106246;1270;22539;-75
2023/12/29 02:19:54;;;;;;;21.70;18.90;;;;;;;5.70;97.61;97722.96;106099;1268;24391;-75
2023/12/29 02:22:22;;;;;;;20.10;16.70;;;;;;;5.66;97.52;97714.83;106261;1273;22718;-75
2023/12/29 02:24:51;;;;;;;19.10;17.30;;;;;;;5.68;97.29;97718.21;106071;1273;22547;-74
2023/12/29 02:27:33;;;;;;;18.80;16.90;;;;;;;5.68;97.56;97714.05;106352;1282;24350;-75
2023/12/29 02:30:15;;;;;;;19.60;17.70;;;;;;;5.64;97.79;97711.48;106153;1273;22651;-73
2023/12/29 02:32:45;;;;;;;19.60;17.80;;;;;;;5.59;97.86;97709.30;106182;1283;22540;-75
2023/12/29 02:35:24;;;;;;;19.40;17.40;;;;;;;5.54;97.81;97711.14;106288;1283;25384;-75
2023/12/29 02:37:55;;;;;;;19.80;17.70;;;;;;;5.50;97.61;97708.89;106318;1283;23133;-74
2023/12/29 02:40:25;;;;;;;20.20;18.20;;;;;;;5.48;97.30;97707.77;106251;1272;23471;-75
2023/12/29 02:42:53;;;;;;;21.40;19.40;;;;;;;5.45;97.49;97694.67;106170;1262;22768;-75
2023/12/29 02:45:21;;;;;;;22.50;20.30;;;;;;;5.42;97.64;97696.67;106226;1283;23940;-76
2023/12/29 02:47:49;;;;;;;22.60;20.60;;;;;;;5.37;97.76;97703.84;106217;1283;23107;-76
2023/12/29 02:50:17;;;;;;;23.30;20.90;;;;;;;5.32;97.66;97709.40;106298;1269;24292;-75
2023/12/29 02:52:46;;;;;;;23.40;20.90;;;;;;;5.27;97.76;97710.52;106215;1273;23936;-76
2023/12/29 02:55:14;;;;;;;23.30;21.00;;;;;;;5.25;97.66;97703.95;106294;1271;24293;-75
2023/12/29 02:57:42;;;;;;;22.80;20.40;;;;;;;5.24;97.66;97695.03;106370;1268;22942;-74
2023/12/29 03:00:11;;;;;;;20.80;18.60;;;;;;;5.23;98.64;97690.71;106263;1271;22540;-74
2023/12/29 03:02:39;;;;;;;21.10;19.20;;;;;;;5.22;98.54;97689.48;106241;1273;22549;-74
2023/12/29 03:05:07;;;;;;;20.50;18.50;;;;;;;5.21;98.49;97695.95;106244;1269;24257;-75
2023/12/29 03:07:35;;;;;;;17.90;16.20;;;;;;;5.20;98.82;97692.00;106236;1273;22556;-75
2023/12/29 03:10:03;;;;;;;16.50;14.60;;;;;;;5.22;99.22;97686.70;106244;1270;22884;-75
2023/12/29 03:12:31;;;;;;;15.70;14.20;;;;;;;5.30;99.83;97680.71;106273;1270;22656;-75
2023/12/29 03:15:00;;;;;;;15.10;13.50;;;;;;;5.41;100.00;97677.55;106226;1273;23386;-75
2023/12/29 03:17:28;;;;;;;15.30;13.80;;;;;;;5.50;100.00;97675.85;106528;1282;22545;-76
2023/12/29 03:19:56;;;;;;;14.90;13.50;;;;;;;5.55;99.95;97670.03;106258;1270;22682;-76
2023/12/29 03:22:24;;;;;;;15.60;14.20;;;;;;;5.60;100.00;97667.98;106539;1273;23411;-76
2023/12/29 03:24:52;;;;;;;15.20;13.70;;;;;;;5.65;99.83;97664.75;106138;1273;25469;-76
2023/12/29 03:27:20;;;;;;;15.50;13.90;;;;;;;5.69;99.16;97660.67;106104;1271;24438;-76
2023/12/29 03:29:48;;;;;;;15.00;13.50;;;;;;;5.71;99.59;97659.44;106145;1268;23231;-76
2023/12/29 03:32:17;;;;;;;17.60;14.60;;;;;;;5.70;99.25;97651.48;106201;1283;22543;-75
2023/12/29 03:34:44;;;;;;;15.00;13.60;;;;;;;5.68;99.28;97655.50;106220;1283;25515;-76
2023/12/29 03:37:13;;;;;;;15.50;13.90;;;;;;;5.66;99.31;97651.34;106241;1276;22546;-76
2023/12/29 03:39:41;;;;;;;15.80;14.10;;;;;;;5.65;98.95;97648.67;106246;1283;25436;-76
2023/12/29 03:42:09;;;;;;;15.60;14.00;;;;;;;5.61;98.56;97645.90;106274;1273;25510;-75
2023/12/29 03:44:37;;;;;;;21.00;19.10;;;;;;;5.58;98.68;97649.66;106200;1283;22629;-75
2023/12/29 03:47:05;;;;;;;21.40;19.60;;;;;;;5.48;98.16;97652.30;106219;1273;23161;-75
2023/12/29 03:49:34;;;;;;;18.70;16.90;;;;;;;5.39;98.24;97652.69;106222;1272;26743;-74
2023/12/29 03:52:02;;;;;;;14.80;13.30;;;;;;;5.28;98.14;97657.58;106251;1283;24252;-74
2023/12/29 03:54:30;;;;;;;16.00;14.50;;;;;;;5.21;98.53;97655.46;106085;1270;25421;-76
2023/12/29 03:56:58;;;;;;;15.80;14.10;;;;;;;5.22;98.89;97650.27;106149;1270;23948;-76
2023/12/29 03:59:27;;;;;;;17.30;15.60;;;;;;;5.23;98.72;97651.29;106257;1270;24278;-76
2023/12/29 04:01:55;;;;;;;17.80;16.10;;;;;;;5.20;98.73;97657.21;106250;1284;23390;-75
2023/12/29 04:04:24;;;;;;;19.20;17.40;;;;;;;5.17;99.15;97649.75;106209;1269;22547;-76
2023/12/29 04:06:51;;;;;;;21.80;19.60;;;;;;;5.13;98.95;97646.98;106201;1273;22560;-76
2023/12/29 04:09:20;;;;;;;20.30;18.30;;;;;;;5.10;99.09;97646.23;106157;1284;22559;-75
2023/12/29 04:11:48;;;;;;;19.80;17.90;;;;;;;5.09;99.18;97646.98;105953;1284;22557;-76
2023/12/29 04:14:16;;;;;;;20.00;18.20;;;;;;;5.08;99.12;97650.81;106152;1284;23342;-75
2023/12/29 04:16:44;;;;;;;21.40;19.10;;;;;;;5.05;99.44;97648.95;106159;1270;22633;-76
2023/12/29 04:19:12;;;;;;;22.20;20.20;;;;;;;5.00;99.33;97651.64;106177;1273;23401;-76
2023/12/29 04:21:44;;;;;;;20.00;18.00;;;;;;;4.96;99.61;97649.92;106243;1273;24289;-76
2023/12/29 04:24:12;;;;;;;16.70;15.10;;;;;;;4.96;99.48;97643.52;106343;1284;23454;-73
2023/12/29 04:26:40;;;;;;;15.00;13.50;;;;;;;4.98;99.45;97648.16;106119;1271;24313;-74
2023/12/29 04:29:08;;;;;;;13.60;12.30;;;;;;;4.99;99.38;97651.70;106105;1270;22590;-76
2023/12/29 04:31:36;;;;;;;14.20;12.90;;;;;;;4.99;99.83;97654.63;106148;1271;23010;-76
2023/12/29 04:34:04;;;;;;;14.10;12.70;;;;;;;4.98;99.95;97652.86;106115;1283;25493;-75
2023/12/29 04:36:32;;;;;;;14.10;12.60;;;;;;;4.96;99.93;97650.61;106123;1274;22571;-75
2023/12/29 04:39:00;;;;;;;12.30;11.10;;;;;;;4.92;100.00;97650.95;106180;1284;22547;-74
2023/12/29 04:41:28;;;;;;;13.70;12.20;;;;;;;4.93;100.00;97649.45;106233;1284;22550;-74
2023/12/29 04:43:56;;;;;;;14.10;11.00;;;;;;;4.97;100.00;97652.53;106228;1284;24252;-75
2023/12/29 04:46:24;;;;;;;13.10;11.40;;;;;;;4.97;100.00;97657.02;106239;1277;22795;-75
2023/12/29 04:48:53;;;;;;;12.40;11.00;;;;;;;4.95;100.00;97648.74;106204;1284;22559;-76
2023/12/29 04:51:21;;;;;;;12.60;11.30;;;;;;;4.97;100.00;97642.71;106168;1273;24375;-73
2023/12/29 04:53:49;;;;;;;11.70;10.40;;;;;;;5.00;100.00;97638.34;106141;1271;22624;-75
2023/12/29 04:56:17;;;;;;;13.00;10.90;;;;;;;5.04;100.00;97634.59;106244;1283;22663;-75
2023/12/29 04:58:44;;;;;;;10.90;9.80;;;;;;;5.10;100.00;97627.10;106247;1283;25396;-75
2023/12/29 05:01:12;;;;;;;12.60;10.90;;;;;;;5.13;100.00;97624.33;106246;1283;22543;-74
2023/12/29 05:03:40;;;;;;;12.50;11.00;;;;;;;5.15;100.00;97630.84;106316;1283;25394;-76
2023/12/29 05:06:08;;;;;;;10.90;9.80;;;;;;;5.18;100.00;97626.56;106309;1282;22536;-74
2023/12/29 05:08:36;;;;;;;11.20;9.40;;;;;;;5.21;100.00;97624.73;106363;1283;23159;-76
2023/12/29 05:11:04;;;;;;;10.80;9.70;;;;;;;5.27;100.00;97619.97;106374;1283;25431;-74
2023/12/29 05:13:32;;;;;;;11.00;9.90;;;;;;;5.31;100.00;97621.29;106420;1268;22559;-74
2023/12/29 05:16:00;;;;;;;11.50;10.40;;;;;;;5.33;100.00;97618.73;106259;1274;22840;-74
2023/12/29 05:18:29;;;;;;;10.90;9.50;;;;;;;5.38;100.00;97617.70;106253;1268;23463;-74
2023/12/29 05:20:57;;;;;;;13.50;10.70;;;;;;;5.46;99.82;97619.22;106269;1283;22561;-74
2023/12/29 05:23:26;;;;;;;12.50;11.10;;;;;;;5.51;99.53;97616.22;106230;1283;22554;-75
2023/12/29 05:25:54;;;;;;;12.80;10.70;;;;;;;5.54;99.38;97615.56;106222;1281;25485;-76
2023/12/29 05:28:22;;;;;;;12.00;10.70;;;;;;;5.56;99.51;97607.59;106296;1269;22995;-77
2023/12/29 05:30:50;;;;;;;15.00;12.00;;;;;;;5.57;99.40;97609.23;106223;1283;22543;-74
2023/12/29 05:33:18;;;;;;;12.50;11.20;;;;;;;5.60;99.30;97614.36;106290;1265;23896;-74
2023/12/29 05:35:46;;;;;;;11.60;10.40;;;;;;;5.64;99.04;97618.42;106270;1273;24283;-75
2023/12/29 05:38:14;;;;;;;15.30;12.30;;;;;;;5.68;99.12;97614.82;106279;1274;22542;-76
2023/12/29 05:40:42;;;;;;;13.40;10.60;;;;;;;5.68;99.00;97611.02;106605;1273;22651;-77
2023/12/29 05:43:10;;;;;;;12.20;10.70;;;;;;;5.67;98.82;97612.95;106263;1273;23733;-76
2023/12/29 05:45:38;;;;;;;12.20;10.30;;;;;;;5.68;98.61;97620.27;106284;1273;22709;-76
2023/12/29 05:48:06;;;;;;;10.00;9.00;;;;;;;5.69;97.95;97623.90;106246;1271;23376;-75
2023/12/29 05:50:34;;;;;;;9.90;8.90;;;;;;;5.69;97.77;97629.77;106242;1283;22544;-76
2023/12/29 05:53:03;;;;;;;11.20;8.90;;;;;;;5.72;97.65;97627.99;106268;1283;22553;-76
2023/12/29 05:55:31;;;;;;;9.00;7.80;;;;;;;5.76;97.59;97628.52;106224;1273;22559;-76
2023/12/29 05:57:59;;;;;;;9.20;8.20;;;;;;;5.85;97.48;97615.91;106238;1273;22558;-74
2023/12/29 06:00:27;;;;;;;9.50;8.30;;;;;;;5.95;97.45;97614.17;106221;1283;22595;-75
2023/12/29 06:02:55;;;;;;;9.50;8.50;;;;;;;6.04;97.27;97615.31;106216;1283;22590;-75
2023/12/29 06:05:23;;;;;;;10.80;9.70;;;;;;;6.11;96.93;97624.46;106271;1270;22603;-75
2023/12/29 06:07:51;;;;;;;9.50;8.50;;;;;;;6.17;96.98;97620.27;106161;1270;25635;-75
2023/12/29 06:10:19;;;;;;;9.50;8.30;;;;;;;6.21;96.70;97624.95;106269;1268;22977;-76
2023/12/29 06:12:47;;;;;;;9.70;8.70;;;;;;;6.25;96.35;97623.48;106170;1283;22539;-75
2023/12/29 06:15:15;;;;;;;9.50;7.80;;;;;;;6.31;96.41;97619.55;106225;1268;22807;-76
2023/12/29 06:17:44;;;;;;;15.60;10.70;;;;;;;6.41;96.38;97620.18;106513;1273;25967;-76
2023/12/29 06:20:12;;;;;;;9.20;7.90;;;;;;;6.51;96.39;97619.79;106275;1283;25446;-75
2023/12/29 06:22:41;;;;;;;10.00;9.10;;;;;;;6.70;95.86;97615.36;106453;1283;22570;-76
2023/12/29 06:26:01;;;;;;;9.40;8.30;;;;;;;6.80;95.56;97618.66;106644;1277;23494;-75
2023/12/29 06:28:29;;;;;;;9.00;8.10;;;;;;;6.88;95.19;97621.37;106388;1276;22655;-75
2023/12/29 06:30:57;;;;;;;9.00;8.00;;;;;;;6.97;95.55;97622.96;106341;1282;22544;-76
2023/12/29 06:33:25;;;;;;;8.40;6.90;;;;;;;7.06;95.92;97612.16;106451;1282;25392;-75
2023/12/29 06:35:53;;;;;;;6.90;6.20;;;;;;;7.15;95.47;97620.96;106266;1269;22542;-74
2023/12/29 06:38:21;;;;;;;7.50;6.00;;;;;;;7.24;95.04;97630.20;106165;1283;24299;-75
2023/12/29 06:40:49;;;;;;;7.40;6.10;;;;;;;7.31;94.82;97633.30;106243;1283;23904;-75
2023/12/29 06:43:17;;;;;;;6.70;5.50;;;;;;;7.36;95.14;97628.15;106295;1280;22687;-74
2023/12/29 06:45:45;;;;;;;9.10;6.60;;;;;;;7.43;95.29;97635.80;106314;1274;22558;-75
2023/12/29 06:48:13;;;;;;;12.00;9.60;;;;;;;7.46;95.06;97636.02;106320;1283;22552;-74
2023/12/29 06:50:42;;;;;;;9.40;8.40;;;;;;;7.46;94.54;97641.86;106216;1261;24257;-76
2023/12/29 06:53:10;;;;;;;10.00;8.70;;;;;;;7.51;93.96;97652.98;106224;1270;22670;-75
2023/12/29 06:55:38;;;;;;;8.80;7.90;;;;;;;7.57;93.84;97632.15;106245;1273;23553;-75
2023/12/29 06:58:06;;;;;;;18.20;16.50;;;;;;;7.59;93.80;97621.14;106254;1274;22553;-75
2023/12/29 07:00:34;;;;;;;15.00;13.70;;;;;;;7.58;93.22;97625.44;106212;1283;22551;-75
2023/12/29 07:03:02;;;;;;;13.80;12.60;;;;;;;7.59;92.98;97616.73;106671;1274;22579;-76
2023/12/29 07:05:30;;;;;;;17.70;16.20;;;;;;;7.63;92.90;97612.55;106380;1269;22659;-76
2023/12/29 07:08:00;;;;;;;13.80;12.30;;;;;;;7.69;92.87;97604.29;106266;1280;25372;-76
2023/12/29 07:10:28;;;;;;;12.20;10.90;;;;;;;7.70;92.68;97600.68;106355;1283;25580;-76
2023/12/29 07:12:56;;;;;;;11.60;10.50;;;;;;;7.71;92.03;97603.67;106134;1283;22652;-76
2023/12/29 07:15:24;;;;;;;11.50;10.30;;;;;;;7.70;91.85;97606.54;106264;1273;25310;-76
2023/12/29 07:17:53;;;;;;;10.20;8.90;;;;;;;7.68;92.30;97612.20;106249;1279;22565;-75
2023/12/29 07:20:21;;;;;;;10.60;9.30;;;;;;;7.69;92.66;97620.90;106404;1272;25480;-76
2023/12/29 07:22:49;;;;;;;10.60;8.40;;;;;;;7.68;93.00;97628.48;106261;1283;24249;-75
2023/12/29 07:25:17;;;;;;;10.70;8.70;;;;;;;7.67;92.30;97633.96;106301;1273;22626;-75
2023/12/29 07:27:45;;;;;;;11.50;9.70;;;;;;;7.64;92.66;97632.23;106674;1269;24224;-75
2023/12/29 07:30:14;;;;;;;9.80;8.90;;;;;;;7.63;92.53;97631.60;106421;1276;22559;-76
2023/12/29 07:32:42;;;;;;;9.70;8.00;;;;;;;7.61;92.70;97632.21;106285;1270;22567;-76
2023/12/29 07:35:10;;;;;;;10.00;9.00;;;;;;;7.63;93.07;97634.83;106233;1270;25357;-75
2023/12/29 07:37:38;;;;;;;10.50;9.50;;;;;;;7.63;92.85;97627.96;106241;1270;23899;-75
2023/12/29 07:40:08;;;;;;;14.30;10.50;;;;;;;7.62;92.58;97634.79;106216;1274;24525;-75
2023/12/29 07:42:36;;;;;;;12.30;11.00;;;;;;;7.61;92.01;97625.04;106304;1269;24259;-75
2023/12/29 07:45:04;;;;;;;19.10;17.30;;;;;;;7.62;92.37;97630.77;106303;1270;24370;-75
2023/12/29 07:47:32;;;;;;;12.10;10.90;;;;;;;7.65;92.89;97626.39;106262;1283;22544;-76
2023/12/29 07:50:01;;;;;;;10.00;8.70;;;;;;;7.68;92.53;97632.35;106214;1283;22649;-75
2023/12/29 07:52:30;;;;;;;11.90;9.90;;;;;;;7.69;92.35;97633.79;106377;1283;23935;-76
2023/12/29 07:54:58;;;;;;;19.70;16.80;;;;;;;7.72;91.65;97632.95;106265;1272;24226;-75
2023/12/29 07:57:26;;;;;;;41.00;36.70;;;;;;;7.75;91.99;97637.91;106146;1283;22531;-75
2023/12/29 07:59:54;;;;;;;36.10;32.30;;;;;;;7.82;92.44;97645.97;106215;1273;22789;-75
2023/12/29 08:02:22;;;;;;;27.80;25.00;;;;;;;7.84;92.29;97647.94;106174;1276;25692;-76
2023/12/29 08:04:50;;;;;;;15.10;12.90;;;;;;;7.85;91.86;97642.08;106207;1270;24263;-75
2023/12/29 08:07:18;;;;;;;15.40;14.00;;;;;;;7.86;91.67;97637.30;106151;1268;24372;-75
2023/12/29 08:09:46;;;;;;;10.50;9.40;;;;;;;7.89;91.26;97640.70;106216;1283;22547;-75
2023/12/29 08:12:14;;;;;;;10.50;9.40;;;;;;;7.93;91.72;97641.11;106233;1273;25273;-75
2023/12/29 08:14:42;;;;;;;11.70;9.70;;;;;;;8.02;91.84;97642.56;106233;1283;25255;-76
2023/12/29 08:17:11;;;;;;;10.70;9.50;;;;;;;8.06;91.95;97640.15;106159;1272;22548;-76
2023/12/29 08:19:40;;;;;;;11.60;9.80;;;;;;;8.10;91.72;97632.26;106153;1282;22665;-76
2023/12/29 08:22:08;;;;;;;11.10;9.70;;;;;;;8.13;91.17;97636.23;106230;1274;22775;-76
2023/12/29 08:24:35;;;;;;;11.10;9.20;;;;;;;8.18;89.99;97645.56;106172;1272;22549;-76
2023/12/29 08:27:03;;;;;;;10.30;9.20;;;;;;;8.24;90.38;97644.95;106244;1283;22547;-74
2023/12/29 08:29:31;;;;;;;9.60;8.60;;;;;;;8.31;90.37;97645.45;106317;1283;24209;-75
2023/12/29 08:32:01;;;;;;;9.30;8.30;;;;;;;8.38;89.90;97651.49;106330;1280;24085;-77
2023/12/29 08:34:29;;;;;;;9.50;7.70;;;;;;;8.42;89.37;97655.05;106276;1283;23083;-75
2023/12/29 08:36:57;;;;;;;9.50;7.90;;;;;;;8.48;88.64;97656.84;106247;1270;25268;-75
2023/12/29 08:39:26;;;;;;;9.00;7.60;;;;;;;8.54;88.22;97660.09;106334;1277;22662;-76
2023/12/29 08:41:54;;;;;;;8.90;8.00;;;;;;;8.64;88.57;97660.95;106236;1277;24205;-76
2023/12/29 08:44:21;;;;;;;9.20;7.20;;;;;;;8.75;87.37;97666.06;106259;1276;23929;-75
2023/12/29 08:46:50;;;;;;;8.70;6.80;;;;;;;8.80;86.54;97660.66;106268;1281;22555;-76
2023/12/29 08:49:18;;;;;;;10.00;7.20;;;;;;;8.85;85.56;97666.21;106169;1283;22545;-77
2023/12/29 08:51:46;;;;;;;7.30;6.40;;;;;;;8.90;85.27;97663.95;106196;1283;25249;-76
2023/12/29 08:54:14;;;;;;;9.40;8.10;;;;;;;8.93;84.63;97670.30;106136;1272;25495;-77
2023/12/29 08:56:42;;;;;;;9.40;6.80;;;;;;;8.95;84.10;97674.94;106166;1283;22586;-77
2023/12/29 08:59:10;;;;;;;7.40;6.60;;;;;;;8.97;84.79;97675.66;106176;1271;22543;-75
2023/12/29 09:01:38;;;;;;;8.10;5.80;;;;;;;9.03;84.85;97676.36;106125;1283;23501;-75
2023/12/29 09:04:06;;;;;;;6.80;6.10;;;;;;;9.06;84.15;97675.09;106280;1273;24254;-76
2023/12/29 09:06:34;;;;;;;7.70;6.20;;;;;;;9.07;84.04;97670.60;106226;1278;24353;-76
2023/12/29 09:09:02;;;;;;;7.90;6.50;;;;;;;9.09;83.19;97675.09;106159;1283;22604;-76
2023/12/29 09:11:30;;;;;;;11.50;8.50;;;;;;;9.07;83.71;97666.02;106130;1277;22475;-76
2023/12/29 09:13:58;;;;;;;9.10;7.10;;;;;;;9.09;82.94;97663.96;106214;1270;24381;-77
2023/12/29 09:16:26;;;;;;;7.30;6.10;;;;;;;9.07;83.37;97664.03;106155;1270;24278;-78
2023/12/29 09:18:55;;;;;;;7.50;6.70;;;;;;;9.11;82.79;97661.35;106223;1270;22553;-77
2023/12/29 09:21:23;;;;;;;16.50;14.90;;;;;;;9.11;82.72;97659.39;106179;1284;22647;-77
2023/12/29 09:23:51;;;;;;;16.20;10.50;;;;;;;9.16;82.94;97656.59;106215;1283;22566;-76
2023/12/29 09:26:19;;;;;;;17.50;15.10;;;;;;;9.21;82.52;97655.59;106105;1272;22548;-76
2023/12/29 09:28:47;;;;;;;24.10;21.70;;;;;;;9.23;82.23;97650.02;106148;1261;24301;-76
2023/12/29 09:31:15;;;;;;;12.20;7.80;;;;;;;9.25;81.85;97650.52;106115;1282;22606;-76
2023/12/29 09:33:43;;;;;;;12.50;11.30;;;;;;;9.27;81.88;97651.71;106119;1270;22554;-75
2023/12/29 09:36:12;;;;;;;8.30;6.60;;;;;;;9.30;81.20;97642.10;106033;1264;22643;-75
2023/12/29 09:38:41;;;;;;;9.90;7.50;;;;;;;9.28;81.40;97631.48;106152;1283;22686;-76
2023/12/29 09:41:15;;;;;;;8.70;7.20;;;;;;;9.33;81.41;97630.73;106182;1274;22552;-76
2023/12/29 09:43:48;;;;;;;9.00;8.10;;;;;;;9.38;81.39;97623.66;106266;1283;24301;-76
2023/12/29 09:46:23;;;;;;;8.30;7.40;;;;;;;9.46;82.04;97622.49;106160;1270;23017;-76
2023/12/29 09:48:52;;;;;;;6.70;5.80;;;;;;;9.52;81.77;97618.98;106248;1273;25432;-76
2023/12/29 09:51:23;;;;;;;8.90;7.20;;;;;;;9.58;81.58;97620.97;106094;1273;176470;-77
2023/12/29 09:53:52;;;;;;;6.40;5.50;;;;;;;9.63;81.69;97606.30;106328;1283;22554;-77
2023/12/29 09:56:20;;;;;;;9.50;6.40;;;;;;;9.65;80.34;97615.52;106257;1261;24913;-77
2023/12/29 09:58:50;;;;;;;7.60;6.40;;;;;;;9.64;79.81;97611.48;106283;1283;22946;-75
2023/12/29 10:01:21;;;;;;;45.60;17.90;;;;;;;9.64;79.11;97618.70;106286;1283;22642;-75
2023/12/29 10:03:49;;;;;;;27.20;12.90;;;;;;;9.63;79.12;97612.16;106240;1270;22540;-75
2023/12/29 10:06:23;;;;;;;22.20;11.40;;;;;;;9.63;78.84;97605.27;106293;1271;22543;-76
2023/12/29 10:08:53;;;;;;;12.40;8.50;;;;;;;9.65;79.29;97602.81;106302;1273;22536;-75
2023/12/29 10:11:22;;;;;;;10.90;7.90;;;;;;;9.68;79.37;97602.13;106258;1274;22553;-76
2023/12/29 10:13:54;;;;;;;11.70;8.30;;;;;;;9.72;80.06;97599.98;106459;1280;23304;-77
2023/12/29 10:16:38;;;;;;;8.20;5.90;;;;;;;9.79;79.97;97599.39;106391;1269;24228;-76
2023/12/29 10:19:21;;;;;;;9.40;7.00;;;;;;;9.84;79.88;97601.82;106215;1277;23141;-75
2023/12/29 10:22:02;;;;;;;9.60;8.00;;;;;;;9.91;79.78;97596.03;106205;1280;25334;-76
2023/12/29 10:24:30;;;;;;;9.00;6.60;;;;;;;9.99;79.36;97598.19;106206;1270;22592;-76
2023/12/29 10:26:59;;;;;;;9.50;6.80;;;;;;;10.04;78.93;97595.27;106242;1274;23927;-75
2023/12/29 10:29:27;;;;;;;6.60;5.80;;;;;;;10.08;78.75;97588.30;106248;1283;22554;-76
2023/12/29 10:31:55;;;;;;;7.40;5.90;;;;;;;10.13;78.50;97588.99;106245;1273;25382;-76
2023/12/29 10:34:28;;;;;;;12.10;6.20;;;;;;;10.17;78.60;97587.19;106178;1283;22556;-75
2023/12/29 10:36:58;;;;;;;5.90;5.20;;;;;;;10.24;77.76;97581.71;106282;1270;23972;-76
2023/12/29 10:39:27;;;;;;;6.00;5.00;;;;;;;10.26;76.97;97583.00;106299;1271;22599;-75
2023/12/29 10:42:07;;;;;;;7.10;5.10;;;;;;;10.27;76.54;97580.14;106214;1260;25529;-74
2023/12/29 10:44:36;;;;;;;5.80;4.50;;;;;;;10.26;76.44;97575.48;106262;1283;24081;-76
2023/12/29 10:47:11;;;;;;;6.70;4.90;;;;;;;10.26;76.21;97578.70;106189;1280;24402;-76
2023/12/29 10:49:40;;;;;;;8.00;5.20;;;;;;;10.26;76.41;97581.67;106209;1279;25440;-77
2023/12/29 10:52:16;;;;;;;7.00;5.00;;;;;;;10.25;75.70;97575.10;106308;1276;22816;-75
2023/12/29 10:54:45;;;;;;;7.50;5.90;;;;;;;10.24;76.38;97573.13;106240;1283;26672;-75
2023/12/29 10:57:13;;;;;;;8.60;5.20;;;;;;;10.28;75.63;97572.85;106371;1269;24228;-76
2023/12/29 10:59:42;;;;;;;7.10;5.00;;;;;;;10.26;76.03;97571.65;106663;1282;22564;-75
2023/12/29 11:02:14;;;;;;;5.50;4.90;;;;;;;10.29;75.73;97573.70;106353;1282;22538;-76
2023/12/29 11:04:43;;;;;;;5.60;5.00;;;;;;;10.32;75.61;97563.62;106743;1273;22539;-74
2023/12/29 11:07:13;;;;;;;7.60;5.60;;;;;;;10.31;75.34;97571.98;106397;1283;25513;-77
2023/12/29 11:09:42;;;;;;;6.90;5.90;;;;;;;10.30;75.35;97564.30;106271;1282;25154;-75
2023/12/29 11:12:13;;;;;;;10.70;8.50;;;;;;;10.31;75.77;97561.58;106280;1270;23911;-75
2023/12/29 11:14:46;;;;;;;9.10;7.90;;;;;;;10.37;75.69;97562.84;106335;1283;25264;-76
2023/12/29 11:17:15;;;;;;;7.40;6.50;;;;;;;10.43;75.48;97560.12;106231;1270;22768;-75
2023/12/29 11:19:47;;;;;;;8.70;7.10;;;;;;;10.47;74.49;97549.19;106331;1269;24079;-76
2023/12/29 11:22:17;;;;;;;7.10;6.00;;;;;;;10.50;73.65;97540.17;106271;1276;25394;-75
2023/12/29 11:24:48;;;;;;;9.50;7.20;;;;;;;10.59;74.11;97540.55;106248;1280;22602;-77
2023/12/29 11:27:17;;;;;;;15.30;13.30;;;;;;;10.81;73.53;97545.98;106301;1276;22542;-75
2023/12/29 11:29:45;;;;;;;10.60;9.40;;;;;;;11.04;73.26;97551.05;106277;1270;24254;-75